sensor_id;sensor_type;location;lat;lon;timestamp;temperature;humidity
26707;DHT22;14319;49.422;10.934;2024-03-23T00:54:22;10.30;78.80
26707;DHT22;14319;49.422;10.934;2024-03-23T00:56:23;10.20;79.50
26707;DHT22;14319;49.422;10.934;2024-03-23T00:58:24;10.30;81.20
26707;DHT22;14319;49.422;10.934;2024-03-23T01:00:25;10.40;80.50
26707;DHT22;14319;49.422;10.934;2024-03-23T01:02:25;10.50;80.50
26707;DHT22;14319;49.422;10.934;2024-03-23T01:04:26;10.40;80.20
26707;DHT22;14319;49.422;10.934;2024-03-23T01:06:27;10.20;80.20
26707;DHT22;14319;49.422;10.934;2024-03-23T01:08:27;10.30;80.70
26707;DHT22;14319;49.422;10.934;2024-03-23T01:10:28;10.20;80.80
26707;DHT22;14319;49.422;10.934;2024-03-23T01:12:28;10.30;81.70
26707;DHT22;14319;49.422;10.934;2024-03-23T01:14:29;10.30;81.40
26707;DHT22;14319;49.422;10.934;2024-03-23T01:16:29;10.20;81.20
26707;DHT22;14319;49.422;10.934;2024-03-23T01:18:30;10.20;81.10
26707;DHT22;14319;49.422;10.934;2024-03-23T01:20:31;10.30;80.00
26707;DHT22;14319;49.422;10.934;2024-03-23T01:22:31;10.20;80.10
26707;DHT22;14319;49.422;10.934;2024-03-23T01:24:32;9.90;80.60
26707;DHT22;14319;49.422;10.934;2024-03-23T01:26:32;9.70;81.50
26707;DHT22;14319;49.422;10.934;2024-03-23T01:28:33;9.60;82.60
26707;DHT22;14319;49.422;10.934;2024-03-23T01:30:34;9.60;83.10
26707;DHT22;14319;49.422;10.934;2024-03-23T01:32:35;9.60;82.70
26707;DHT22;14319;49.422;10.934;2024-03-23T01:34:36;9.60;83.10
26707;DHT22;14319;49.422;10.934;2024-03-23T01:36:36;9.60;82.60
26707;DHT22;14319;49.422;10.934;2024-03-23T01:38:37;9.60;83.50
26707;DHT22;14319;49.422;10.934;2024-03-23T01:40:38;9.50;81.70
26707;DHT22;14319;49.422;10.934;2024-03-23T01:42:38;9.30;83.50
26707;DHT22;14319;49.422;10.934;2024-03-23T01:44:39;9.10;83.30
26707;DHT22;14319;49.422;10.934;2024-03-23T01:46:39;9.10;84.00
26707;DHT22;14319;49.422;10.934;2024-03-23T01:48:42;9.10;84.10
26707;DHT22;14319;49.422;10.934;2024-03-23T01:50:42;9.20;83.60
26707;DHT22;14319;49.422;10.934;2024-03-23T01:52:43;9.20;84.80
26707;DHT22;14319;49.422;10.934;2024-03-23T01:54:45;9.20;84.80
26707;DHT22;14319;49.422;10.934;2024-03-23T01:56:45;9.10;83.70
26707;DHT22;14319;49.422;10.934;2024-03-23T01:58:46;9.00;85.00
26707;DHT22;14319;49.422;10.934;2024-03-23T02:00:47;9.10;84.60
26707;DHT22;14319;49.422;10.934;2024-03-23T02:02:47;9.10;84.40
26707;DHT22;14319;49.422;10.934;2024-03-23T02:04:48;9.10;84.70
26707;DHT22;14319;49.422;10.934;2024-03-23T02:06:49;9.10;85.20
26707;DHT22;14319;49.422;10.934;2024-03-23T02:08:49;9.20;85.20
26707;DHT22;14319;49.422;10.934;2024-03-23T02:10:50;9.40;84.10
26707;DHT22;14319;49.422;10.934;2024-03-23T02:12:51;9.30;84.10
26707;DHT22;14319;49.422;10.934;2024-03-23T02:14:51;9.30;83.60
26707;DHT22;14319;49.422;10.934;2024-03-23T02:16:52;9.40;84.00
26707;DHT22;14319;49.422;10.934;2024-03-23T02:18:52;9.30;84.10
26707;DHT22;14319;49.422;10.934;2024-03-23T02:20:53;9.30;84.00
26707;DHT22;14319;49.422;10.934;2024-03-23T02:22:54;9.30;84.50
26707;DHT22;14319;49.422;10.934;2024-03-23T02:24:54;9.30;84.90
26707;DHT22;14319;49.422;10.934;2024-03-23T02:26:55;9.30;85.60
26707;DHT22;14319;49.422;10.934;2024-03-23T02:28:55;9.40;85.40
26707;DHT22;14319;49.422;10.934;2024-03-23T02:30:56;9.20;84.80
26707;DHT22;14319;49.422;10.934;2024-03-23T02:32:57;9.20;85.80
26707;DHT22;14319;49.422;10.934;2024-03-23T02:34:57;9.30;86.30
26707;DHT22;14319;49.422;10.934;2024-03-23T02:36:58;9.30;86.50
26707;DHT22;14319;49.422;10.934;2024-03-23T02:38:58;9.50;85.90
26707;DHT22;14319;49.422;10.934;2024-03-23T02:41:03;9.70;86.20
26707;DHT22;14319;49.422;10.934;2024-03-23T02:43:04;9.50;85.40
26707;DHT22;14319;49.422;10.934;2024-03-23T02:45:05;9.50;86.70
26707;DHT22;14319;49.422;10.934;2024-03-23T02:47:06;9.40;86.70
26707;DHT22;14319;49.422;10.934;2024-03-23T02:49:07;9.50;85.80
26707;DHT22;14319;49.422;10.934;2024-03-23T02:51:08;9.50;85.30
26707;DHT22;14319;49.422;10.934;2024-03-23T02:53:08;9.40;86.00
26707;DHT22;14319;49.422;10.934;2024-03-23T02:55:09;9.40;86.50
26707;DHT22;14319;49.422;10.934;2024-03-23T02:57:09;9.50;87.40
26707;DHT22;14319;49.422;10.934;2024-03-23T02:59:10;9.70;87.10
26707;DHT22;14319;49.422;10.934;2024-03-23T03:01:11;9.30;86.80
26707;DHT22;14319;49.422;10.934;2024-03-23T03:03:11;9.50;87.30
26707;DHT22;14319;49.422;10.934;2024-03-23T03:05:12;9.60;87.00
26707;DHT22;14319;49.422;10.934;2024-03-23T03:07:14;9.60;86.60
26707;DHT22;14319;49.422;10.934;2024-03-23T03:09:15;9.70;87.30
26707;DHT22;14319;49.422;10.934;2024-03-23T03:11:16;9.70;86.80
26707;DHT22;14319;49.422;10.934;2024-03-23T03:13:16;9.80;87.00
26707;DHT22;14319;49.422;10.934;2024-03-23T03:15:17;9.90;87.10
26707;DHT22;14319;49.422;10.934;2024-03-23T03:17:17;9.90;86.40
26707;DHT22;14319;49.422;10.934;2024-03-23T03:19:19;10.10;84.90
26707;DHT22;14319;49.422;10.934;2024-03-23T03:21:20;10.20;83.80
26707;DHT22;14319;49.422;10.934;2024-03-23T03:23:20;10.30;83.50
26707;DHT22;14319;49.422;10.934;2024-03-23T03:25:21;10.40;83.40
26707;DHT22;14319;49.422;10.934;2024-03-23T03:27:22;10.30;83.10
26707;DHT22;14319;49.422;10.934;2024-03-23T03:29:23;10.30;82.50
26707;DHT22;14319;49.422;10.934;2024-03-23T03:31:24;10.30;83.40
26707;DHT22;14319;49.422;10.934;2024-03-23T03:33:25;9.70;84.80
26707;DHT22;14319;49.422;10.934;2024-03-23T03:35:26;9.50;86.50
26707;DHT22;14319;49.422;10.934;2024-03-23T03:37:26;9.50;87.00
26707;DHT22;14319;49.422;10.934;2024-03-23T03:39:27;9.70;86.10
26707;DHT22;14319;49.422;10.934;2024-03-23T03:41:28;9.80;85.90
26707;DHT22;14319;49.422;10.934;2024-03-23T03:43:28;9.70;84.70
26707;DHT22;14319;49.422;10.934;2024-03-23T03:45:29;9.70;85.70
26707;DHT22;14319;49.422;10.934;2024-03-23T03:47:30;9.60;84.70
26707;DHT22;14319;49.422;10.934;2024-03-23T03:49:31;9.70;86.40
26707;DHT22;14319;49.422;10.934;2024-03-23T03:51:31;9.80;85.90
26707;DHT22;14319;49.422;10.934;2024-03-23T03:53:32;9.90;86.20
26707;DHT22;14319;49.422;10.934;2024-03-23T03:55:33;10.00;85.80
26707;DHT22;14319;49.422;10.934;2024-03-23T03:57:33;10.00;86.00
26707;DHT22;14319;49.422;10.934;2024-03-23T03:59:34;10.10;86.50
26707;DHT22;14319;49.422;10.934;2024-03-23T04:01:35;10.00;86.10
26707;DHT22;14319;49.422;10.934;2024-03-23T04:03:35;10.10;85.50
26707;DHT22;14319;49.422;10.934;2024-03-23T04:05:36;10.10;84.70
26707;DHT22;14319;49.422;10.934;2024-03-23T04:07:36;10.20;82.70
26707;DHT22;14319;49.422;10.934;2024-03-23T04:09:37;10.20;83.20
26707;DHT22;14319;49.422;10.934;2024-03-23T04:11:37;10.20;82.60
26707;DHT22;14319;49.422;10.934;2024-03-23T04:13:38;10.30;82.80
26707;DHT22;14319;49.422;10.934;2024-03-23T04:15:42;10.30;82.30
26707;DHT22;14319;49.422;10.934;2024-03-23T04:17:42;10.30;82.30
26707;DHT22;14319;49.422;10.934;2024-03-23T04:19:44;10.30;81.90
26707;DHT22;14319;49.422;10.934;2024-03-23T04:21:44;10.50;81.60
26707;DHT22;14319;49.422;10.934;2024-03-23T04:23:45;10.40;81.50
26707;DHT22;14319;49.422;10.934;2024-03-23T04:25:46;10.50;81.50
26707;DHT22;14319;49.422;10.934;2024-03-23T04:27:46;10.60;81.60
26707;DHT22;14319;49.422;10.934;2024-03-23T04:29:48;10.60;81.50
26707;DHT22;14319;49.422;10.934;2024-03-23T04:31:49;10.50;80.60
26707;DHT22;14319;49.422;10.934;2024-03-23T04:33:50;10.50;81.60
26707;DHT22;14319;49.422;10.934;2024-03-23T04:35:50;10.50;80.60
26707;DHT22;14319;49.422;10.934;2024-03-23T04:37:51;10.50;80.00
26707;DHT22;14319;49.422;10.934;2024-03-23T04:39:52;10.30;81.70
26707;DHT22;14319;49.422;10.934;2024-03-23T04:41:53;10.20;81.10
26707;DHT22;14319;49.422;10.934;2024-03-23T04:43:53;10.10;81.60
26707;DHT22;14319;49.422;10.934;2024-03-23T04:45:54;9.90;81.90
26707;DHT22;14319;49.422;10.934;2024-03-23T04:47:55;9.90;82.90
26707;DHT22;14319;49.422;10.934;2024-03-23T04:49:55;10.10;83.00
26707;DHT22;14319;49.422;10.934;2024-03-23T04:51:56;10.10;83.00
26707;DHT22;14319;49.422;10.934;2024-03-23T04:53:56;10.30;82.00
26707;DHT22;14319;49.422;10.934;2024-03-23T04:55:58;10.40;81.50
26707;DHT22;14319;49.422;10.934;2024-03-23T04:57:59;10.50;81.50
26707;DHT22;14319;49.422;10.934;2024-03-23T05:00:00;10.60;80.30
26707;DHT22;14319;49.422;10.934;2024-03-23T05:02:00;10.40;80.40
26707;DHT22;14319;49.422;10.934;2024-03-23T05:04:01;10.60;81.20
26707;DHT22;14319;49.422;10.934;2024-03-23T05:06:03;10.50;80.20
26707;DHT22;14319;49.422;10.934;2024-03-23T05:08:04;10.60;80.60
26707;DHT22;14319;49.422;10.934;2024-03-23T05:10:05;10.60;81.30
26707;DHT22;14319;49.422;10.934;2024-03-23T05:12:06;10.50;80.50
26707;DHT22;14319;49.422;10.934;2024-03-23T05:14:07;10.50;80.60
26707;DHT22;14319;49.422;10.934;2024-03-23T05:16:07;10.60;81.40
26707;DHT22;14319;49.422;10.934;2024-03-23T05:18:08;10.70;80.90
26707;DHT22;14319;49.422;10.934;2024-03-23T05:20:09;10.60;80.40
26707;DHT22;14319;49.422;10.934;2024-03-23T05:22:10;10.70;80.40
26707;DHT22;14319;49.422;10.934;2024-03-23T05:24:10;10.70;80.70
26707;DHT22;14319;49.422;10.934;2024-03-23T05:26:12;10.80;81.10
26707;DHT22;14319;49.422;10.934;2024-03-23T05:28:12;10.90;80.70
26707;DHT22;14319;49.422;10.934;2024-03-23T05:30:13;11.00;80.50
26707;DHT22;14319;49.422;10.934;2024-03-23T05:32:14;10.90;80.80
26707;DHT22;14319;49.422;10.934;2024-03-23T05:34:15;10.90;80.50
26707;DHT22;14319;49.422;10.934;2024-03-23T05:36:15;10.90;80.80
26707;DHT22;14319;49.422;10.934;2024-03-23T05:38:17;11.00;80.40
26707;DHT22;14319;49.422;10.934;2024-03-23T05:40:19;11.00;80.40
26707;DHT22;14319;49.422;10.934;2024-03-23T05:42:19;10.90;79.70
26707;DHT22;14319;49.422;10.934;2024-03-23T05:44:20;10.90;79.80
26707;DHT22;14319;49.422;10.934;2024-03-23T05:46:21;11.00;80.70
26707;DHT22;14319;49.422;10.934;2024-03-23T05:48:22;11.00;79.90
26707;DHT22;14319;49.422;10.934;2024-03-23T05:50:23;11.00;79.40
26707;DHT22;14319;49.422;10.934;2024-03-23T05:52:24;11.00;79.70
26707;DHT22;14319;49.422;10.934;2024-03-23T05:54:25;11.20;80.00
26707;DHT22;14319;49.422;10.934;2024-03-23T05:56:26;11.20;79.10
26707;DHT22;14319;49.422;10.934;2024-03-23T05:58:26;11.20;79.70
26707;DHT22;14319;49.422;10.934;2024-03-23T06:00:27;11.30;80.20
26707;DHT22;14319;49.422;10.934;2024-03-23T06:02:28;11.30;78.80
26707;DHT22;14319;49.422;10.934;2024-03-23T06:04:29;11.30;79.80
26707;DHT22;14319;49.422;10.934;2024-03-23T06:06:30;11.10;81.40
26707;DHT22;14319;49.422;10.934;2024-03-23T06:08:31;11.10;83.80
26707;DHT22;14319;49.422;10.934;2024-03-23T06:10:31;11.00;85.00
26707;DHT22;14319;49.422;10.934;2024-03-23T06:12:32;11.00;86.80
26707;DHT22;14319;49.422;10.934;2024-03-23T06:14:34;10.70;87.80
26707;DHT22;14319;49.422;10.934;2024-03-23T06:16:34;10.80;88.90
26707;DHT22;14319;49.422;10.934;2024-03-23T06:18:35;10.60;89.80
26707;DHT22;14319;49.422;10.934;2024-03-23T06:20:36;10.50;90.00
26707;DHT22;14319;49.422;10.934;2024-03-23T06:22:36;10.50;91.50
26707;DHT22;14319;49.422;10.934;2024-03-23T06:24:37;10.50;91.70
26707;DHT22;14319;49.422;10.934;2024-03-23T06:26:38;10.50;91.20
26707;DHT22;14319;49.422;10.934;2024-03-23T06:28:38;10.50;91.30
26707;DHT22;14319;49.422;10.934;2024-03-23T06:30:39;10.40;92.50
26707;DHT22;14319;49.422;10.934;2024-03-23T06:32:40;10.40;92.90
26707;DHT22;14319;49.422;10.934;2024-03-23T06:34:43;10.40;92.40
26707;DHT22;14319;49.422;10.934;2024-03-23T06:36:44;10.50;92.30
26707;DHT22;14319;49.422;10.934;2024-03-23T06:38:45;10.50;92.60
26707;DHT22;14319;49.422;10.934;2024-03-23T06:40:45;10.60;91.60
26707;DHT22;14319;49.422;10.934;2024-03-23T06:42:47;10.70;91.70
26707;DHT22;14319;49.422;10.934;2024-03-23T06:44:48;10.60;91.00
26707;DHT22;14319;49.422;10.934;2024-03-23T06:46:49;10.60;91.20
26707;DHT22;14319;49.422;10.934;2024-03-23T06:48:50;10.60;90.80
26707;DHT22;14319;49.422;10.934;2024-03-23T06:50:56;10.60;91.30
26707;DHT22;14319;49.422;10.934;2024-03-23T06:52:57;10.70;91.50
26707;DHT22;14319;49.422;10.934;2024-03-23T06:54:58;10.70;90.00
26707;DHT22;14319;49.422;10.934;2024-03-23T06:56:59;10.60;90.10
26707;DHT22;14319;49.422;10.934;2024-03-23T06:58:59;10.60;90.30
26707;DHT22;14319;49.422;10.934;2024-03-23T07:01:00;10.60;90.00
26707;DHT22;14319;49.422;10.934;2024-03-23T07:03:00;10.50;89.60
26707;DHT22;14319;49.422;10.934;2024-03-23T07:05:01;10.50;88.40
26707;DHT22;14319;49.422;10.934;2024-03-23T07:07:03;10.50;89.40
26707;DHT22;14319;49.422;10.934;2024-03-23T07:09:04;10.50;87.90
26707;DHT22;14319;49.422;10.934;2024-03-23T07:11:04;10.60;88.40
26707;DHT22;14319;49.422;10.934;2024-03-23T07:13:05;10.50;87.00
26707;DHT22;14319;49.422;10.934;2024-03-23T07:15:06;10.40;88.40
26707;DHT22;14319;49.422;10.934;2024-03-23T07:17:07;10.30;87.90
26707;DHT22;14319;49.422;10.934;2024-03-23T07:19:07;10.30;87.30
26707;DHT22;14319;49.422;10.934;2024-03-23T07:21:08;10.20;86.60
26707;DHT22;14319;49.422;10.934;2024-03-23T07:23:08;10.20;86.10
26707;DHT22;14319;49.422;10.934;2024-03-23T07:25:09;10.20;86.20
26707;DHT22;14319;49.422;10.934;2024-03-23T07:27:10;10.30;86.50
26707;DHT22;14319;49.422;10.934;2024-03-23T07:29:10;10.20;86.30
26707;DHT22;14319;49.422;10.934;2024-03-23T07:31:15;10.20;86.80
26707;DHT22;14319;49.422;10.934;2024-03-23T07:33:15;10.10;88.80
26707;DHT22;14319;49.422;10.934;2024-03-23T07:35:16;10.10;87.50
26707;DHT22;14319;49.422;10.934;2024-03-23T07:37:16;10.20;89.20
26707;DHT22;14319;49.422;10.934;2024-03-23T07:39:17;10.30;88.40
26707;DHT22;14319;49.422;10.934;2024-03-23T07:41:19;10.30;88.40
26707;DHT22;14319;49.422;10.934;2024-03-23T07:43:20;10.30;87.50
26707;DHT22;14319;49.422;10.934;2024-03-23T07:45:20;10.40;87.80
26707;DHT22;14319;49.422;10.934;2024-03-23T07:47:21;10.40;86.60
26707;DHT22;14319;49.422;10.934;2024-03-23T07:49:22;10.30;87.70
26707;DHT22;14319;49.422;10.934;2024-03-23T07:51:25;10.30;87.80
26707;DHT22;14319;49.422;10.934;2024-03-23T07:53:26;10.30;88.20
26707;DHT22;14319;49.422;10.934;2024-03-23T07:55:27;10.40;88.00
26707;DHT22;14319;49.422;10.934;2024-03-23T07:57:28;10.30;87.30
26707;DHT22;14319;49.422;10.934;2024-03-23T07:59:28;10.50;87.70
26707;DHT22;14319;49.422;10.934;2024-03-23T08:01:32;10.50;87.90
26707;DHT22;14319;49.422;10.934;2024-03-23T08:03:32;10.60;87.80
26707;DHT22;14319;49.422;10.934;2024-03-23T08:05:35;10.60;87.20
26707;DHT22;14319;49.422;10.934;2024-03-23T08:07:36;10.80;87.30
26707;DHT22;14319;49.422;10.934;2024-03-23T08:09:36;10.80;86.40
26707;DHT22;14319;49.422;10.934;2024-03-23T08:11:37;10.90;86.50
26707;DHT22;14319;49.422;10.934;2024-03-23T08:13:41;10.80;85.70
26707;DHT22;14319;49.422;10.934;2024-03-23T08:15:42;10.50;90.20
26707;DHT22;14319;49.422;10.934;2024-03-23T08:17:43;9.20;99.90
26707;DHT22;14319;49.422;10.934;2024-03-23T08:19:43;8.00;99.90
26707;DHT22;14319;49.422;10.934;2024-03-23T08:21:44;7.60;99.90
26707;DHT22;14319;49.422;10.934;2024-03-23T08:23:44;7.50;99.90
26707;DHT22;14319;49.422;10.934;2024-03-23T08:25:45;7.50;99.90
26707;DHT22;14319;49.422;10.934;2024-03-23T08:27:45;7.10;99.90
26707;DHT22;14319;49.422;10.934;2024-03-23T08:29:46;7.10;99.90
26707;DHT22;14319;49.422;10.934;2024-03-23T08:31:47;7.30;99.90
26707;DHT22;14319;49.422;10.934;2024-03-23T08:33:47;7.10;99.90
26707;DHT22;14319;49.422;10.934;2024-03-23T08:36:02;7.20;99.90
26707;DHT22;14319;49.422;10.934;2024-03-23T08:38:03;7.10;99.90
26707;DHT22;14319;49.422;10.934;2024-03-23T08:40:04;7.20;99.90
26707;DHT22;14319;49.422;10.934;2024-03-23T08:42:05;7.20;99.90
26707;DHT22;14319;49.422;10.934;2024-03-23T08:44:06;7.10;99.90
26707;DHT22;14319;49.422;10.934;2024-03-23T08:46:10;7.10;99.90
26707;DHT22;14319;49.422;10.934;2024-03-23T08:48:10;7.10;99.90
26707;DHT22;14319;49.422;10.934;2024-03-23T08:50:11;7.20;99.90
26707;DHT22;14319;49.422;10.934;2024-03-23T08:52:12;7.40;99.00
26707;DHT22;14319;49.422;10.934;2024-03-23T08:54:12;7.60;95.90
26707;DHT22;14319;49.422;10.934;2024-03-23T08:56:13;7.80;93.90
26707;DHT22;14319;49.422;10.934;2024-03-23T08:58:13;7.80;95.40
26707;DHT22;14319;49.422;10.934;2024-03-23T09:00:18;7.80;94.10
26707;DHT22;14319;49.422;10.934;2024-03-23T09:02:18;7.80;94.90
26707;DHT22;14319;49.422;10.934;2024-03-23T09:04:19;7.80;94.90
26707;DHT22;14319;49.422;10.934;2024-03-23T09:06:19;7.80;93.60
26707;DHT22;14319;49.422;10.934;2024-03-23T09:08:21;7.90;92.90
26707;DHT22;14319;49.422;10.934;2024-03-23T09:10:21;7.80;91.70
26707;DHT22;14319;49.422;10.934;2024-03-23T09:12:23;7.70;92.20
26707;DHT22;14319;49.422;10.934;2024-03-23T09:14:24;7.70;92.70
26707;DHT22;14319;49.422;10.934;2024-03-23T09:16:24;7.70;90.70
26707;DHT22;14319;49.422;10.934;2024-03-23T09:18:25;7.70;88.80
26707;DHT22;14319;49.422;10.934;2024-03-23T09:20:25;7.70;88.70
26707;DHT22;14319;49.422;10.934;2024-03-23T09:22:26;7.70;88.90
26707;DHT22;14319;49.422;10.934;2024-03-23T09:24:27;7.60;89.10
26707;DHT22;14319;49.422;10.934;2024-03-23T09:26:27;7.50;88.40
26707;DHT22;14319;49.422;10.934;2024-03-23T09:28:30;7.50;88.40
26707;DHT22;14319;49.422;10.934;2024-03-23T09:30:32;7.50;87.20
26707;DHT22;14319;49.422;10.934;2024-03-23T09:32:34;7.60;88.90
26707;DHT22;14319;49.422;10.934;2024-03-23T09:34:34;7.60;87.90
26707;DHT22;14319;49.422;10.934;2024-03-23T09:36:35;7.80;88.40
26707;DHT22;14319;49.422;10.934;2024-03-23T09:38:35;8.00;86.20
26707;DHT22;14319;49.422;10.934;2024-03-23T09:40:41;8.10;85.10
26707;DHT22;14319;49.422;10.934;2024-03-23T09:42:42;8.30;85.10
26707;DHT22;14319;49.422;10.934;2024-03-23T09:44:48;8.10;81.60
26707;DHT22;14319;49.422;10.934;2024-03-23T09:46:51;8.10;83.90
26707;DHT22;14319;49.422;10.934;2024-03-23T09:48:52;8.10;83.60
26707;DHT22;14319;49.422;10.934;2024-03-23T09:50:52;8.10;84.30
26707;DHT22;14319;49.422;10.934;2024-03-23T09:52:53;8.10;83.90
26707;DHT22;14319;49.422;10.934;2024-03-23T09:54:53;8.20;83.90
26707;DHT22;14319;49.422;10.934;2024-03-23T09:56:54;7.90;82.10
26707;DHT22;14319;49.422;10.934;2024-03-23T09:59:04;8.00;80.90
26707;DHT22;14319;49.422;10.934;2024-03-23T10:01:05;8.20;83.80
26707;DHT22;14319;49.422;10.934;2024-03-23T10:03:06;8.50;80.70
26707;DHT22;14319;49.422;10.934;2024-03-23T10:05:23;8.60;80.60
26707;DHT22;14319;49.422;10.934;2024-03-23T10:07:23;8.60;79.40
26707;DHT22;14319;49.422;10.934;2024-03-23T10:09:26;8.40;77.50
26707;DHT22;14319;49.422;10.934;2024-03-23T10:11:26;8.40;77.70
26707;DHT22;14319;49.422;10.934;2024-03-23T10:13:29;8.30;76.60
26707;DHT22;14319;49.422;10.934;2024-03-23T10:15:30;8.40;78.10
26707;DHT22;14319;49.422;10.934;2024-03-23T10:17:34;8.30;79.90
26707;DHT22;14319;49.422;10.934;2024-03-23T10:19:34;8.50;79.90
26707;DHT22;14319;49.422;10.934;2024-03-23T10:21:35;8.30;78.20
26707;DHT22;14319;49.422;10.934;2024-03-23T10:23:36;8.20;78.70
26707;DHT22;14319;49.422;10.934;2024-03-23T10:25:37;8.00;79.10
26707;DHT22;14319;49.422;10.934;2024-03-23T10:27:38;7.90;83.40
26707;DHT22;14319;49.422;10.934;2024-03-23T10:29:39;7.20;91.20
26707;DHT22;14319;49.422;10.934;2024-03-23T10:31:39;7.00;91.90
26707;DHT22;14319;49.422;10.934;2024-03-23T10:33:47;7.00;89.80
26707;DHT22;14319;49.422;10.934;2024-03-23T10:35:49;7.10;90.10
26707;DHT22;14319;49.422;10.934;2024-03-23T10:37:51;7.40;87.90
26707;DHT22;14319;49.422;10.934;2024-03-23T10:39:52;7.50;90.40
26707;DHT22;14319;49.422;10.934;2024-03-23T10:41:53;7.60;87.80
26707;DHT22;14319;49.422;10.934;2024-03-23T10:43:58;7.60;85.70
26707;DHT22;14319;49.422;10.934;2024-03-23T10:45:59;7.70;87.10
26707;DHT22;14319;49.422;10.934;2024-03-23T10:48:01;7.80;85.00
26707;DHT22;14319;49.422;10.934;2024-03-23T10:50:04;7.90;86.60
26707;DHT22;14319;49.422;10.934;2024-03-23T10:52:08;8.20;83.40
26707;DHT22;14319;49.422;10.934;2024-03-23T10:54:09;8.40;83.20
26707;DHT22;14319;49.422;10.934;2024-03-23T10:56:14;8.50;80.50
26707;DHT22;14319;49.422;10.934;2024-03-23T10:58:17;8.50;80.00
26707;DHT22;14319;49.422;10.934;2024-03-23T11:00:19;8.60;80.30
26707;DHT22;14319;49.422;10.934;2024-03-23T11:02:22;8.80;80.90
26707;DHT22;14319;49.422;10.934;2024-03-23T11:04:36;8.70;77.90
26707;DHT22;14319;49.422;10.934;2024-03-23T11:06:39;8.70;79.80
26707;DHT22;14319;49.422;10.934;2024-03-23T11:08:41;8.90;77.40
26707;DHT22;14319;49.422;10.934;2024-03-23T11:10:45;9.00;77.30
26707;DHT22;14319;49.422;10.934;2024-03-23T11:12:46;8.80;75.10
26707;DHT22;14319;49.422;10.934;2024-03-23T11:14:47;8.70;72.40
26707;DHT22;14319;49.422;10.934;2024-03-23T11:17:08;8.40;72.30
26707;DHT22;14319;49.422;10.934;2024-03-23T11:19:35;8.20;73.70
26707;DHT22;14319;49.422;10.934;2024-03-23T11:21:55;8.60;75.80
26707;DHT22;14319;49.422;10.934;2024-03-23T11:24:13;8.50;73.50
26707;DHT22;14319;49.422;10.934;2024-03-23T11:26:13;8.60;73.60
26707;DHT22;14319;49.422;10.934;2024-03-23T11:28:14;8.70;74.70
26707;DHT22;14319;49.422;10.934;2024-03-23T11:30:20;8.40;70.50
26707;DHT22;14319;49.422;10.934;2024-03-23T11:32:22;8.30;71.90
26707;DHT22;14319;49.422;10.934;2024-03-23T11:34:23;8.30;72.20
26707;DHT22;14319;49.422;10.934;2024-03-23T11:36:23;8.50;74.00
26707;DHT22;14319;49.422;10.934;2024-03-23T11:38:24;8.60;75.90
26707;DHT22;14319;49.422;10.934;2024-03-23T11:40:24;8.70;75.60
26707;DHT22;14319;49.422;10.934;2024-03-23T11:42:25;9.00;73.40
26707;DHT22;14319;49.422;10.934;2024-03-23T11:44:26;9.00;71.60
26707;DHT22;14319;49.422;10.934;2024-03-23T11:46:27;8.70;71.10
26707;DHT22;14319;49.422;10.934;2024-03-23T11:48:27;8.80;74.00
26707;DHT22;14319;49.422;10.934;2024-03-23T11:50:28;8.90;70.90
26707;DHT22;14319;49.422;10.934;2024-03-23T11:52:29;9.00;73.10
26707;DHT22;14319;49.422;10.934;2024-03-23T11:54:30;9.00;71.30
26707;DHT22;14319;49.422;10.934;2024-03-23T11:56:31;9.00;72.10
26707;DHT22;14319;49.422;10.934;2024-03-23T11:58:31;8.70;68.10
26707;DHT22;14319;49.422;10.934;2024-03-23T12:00:33;8.70;66.70
26707;DHT22;14319;49.422;10.934;2024-03-23T12:02:34;8.60;64.40
26707;DHT22;14319;49.422;10.934;2024-03-23T12:04:35;8.60;65.10
26707;DHT22;14319;49.422;10.934;2024-03-23T12:06:38;8.70;66.40
26707;DHT22;14319;49.422;10.934;2024-03-23T12:08:39;8.80;65.50
26707;DHT22;14319;49.422;10.934;2024-03-23T12:10:39;8.80;65.80
26707;DHT22;14319;49.422;10.934;2024-03-23T12:12:40;8.80;66.20
26707;DHT22;14319;49.422;10.934;2024-03-23T12:14:41;8.70;64.10
26707;DHT22;14319;49.422;10.934;2024-03-23T12:16:42;8.80;63.90
26707;DHT22;14319;49.422;10.934;2024-03-23T12:18:44;8.80;62.90
26707;DHT22;14319;49.422;10.934;2024-03-23T12:20:45;8.80;62.50
26707;DHT22;14319;49.422;10.934;2024-03-23T12:22:46;9.00;64.50
26707;DHT22;14319;49.422;10.934;2024-03-23T12:24:47;9.00;65.60
26707;DHT22;14319;49.422;10.934;2024-03-23T12:26:48;9.10;64.80
26707;DHT22;14319;49.422;10.934;2024-03-23T12:28:50;9.10;64.50
26707;DHT22;14319;49.422;10.934;2024-03-23T12:30:51;9.00;63.60
26707;DHT22;14319;49.422;10.934;2024-03-23T12:32:55;9.00;62.90
26707;DHT22;14319;49.422;10.934;2024-03-23T12:34:56;9.00;62.00
26707;DHT22;14319;49.422;10.934;2024-03-23T12:36:56;8.90;61.70
26707;DHT22;14319;49.422;10.934;2024-03-23T12:38:57;9.00;62.00
26707;DHT22;14319;49.422;10.934;2024-03-23T12:40:57;9.00;61.40
26707;DHT22;14319;49.422;10.934;2024-03-23T12:42:58;9.30;62.10
26707;DHT22;14319;49.422;10.934;2024-03-23T12:44:59;9.50;63.20
26707;DHT22;14319;49.422;10.934;2024-03-23T12:46:59;9.50;61.40
26707;DHT22;14319;49.422;10.934;2024-03-23T12:49:00;9.70;60.00
26707;DHT22;14319;49.422;10.934;2024-03-23T12:51:00;9.80;57.70
26707;DHT22;14319;49.422;10.934;2024-03-23T12:53:01;9.70;57.60
26707;DHT22;14319;49.422;10.934;2024-03-23T12:55:05;9.70;59.60
26707;DHT22;14319;49.422;10.934;2024-03-23T12:57:06;9.90;61.50
26707;DHT22;14319;49.422;10.934;2024-03-23T12:59:07;9.90;59.50
26707;DHT22;14319;49.422;10.934;2024-03-23T13:01:08;9.70;60.10
26707;DHT22;14319;49.422;10.934;2024-03-23T13:03:13;9.90;62.30
26707;DHT22;14319;49.422;10.934;2024-03-23T13:05:14;10.00;61.60
26707;DHT22;14319;49.422;10.934;2024-03-23T13:07:15;9.70;59.60
26707;DHT22;14319;49.422;10.934;2024-03-23T13:09:16;9.40;58.70
26707;DHT22;14319;49.422;10.934;2024-03-23T13:11:17;9.40;60.20
26707;DHT22;14319;49.422;10.934;2024-03-23T13:13:18;9.50;59.80
26707;DHT22;14319;49.422;10.934;2024-03-23T13:15:19;9.50;58.50
26707;DHT22;14319;49.422;10.934;2024-03-23T13:17:20;9.60;59.90
26707;DHT22;14319;49.422;10.934;2024-03-23T13:19:21;9.80;61.70
26707;DHT22;14319;49.422;10.934;2024-03-23T13:21:27;9.70;60.90
26707;DHT22;14319;49.422;10.934;2024-03-23T13:23:27;9.50;58.60
26707;DHT22;14319;49.422;10.934;2024-03-23T13:25:28;9.40;58.90
26707;DHT22;14319;49.422;10.934;2024-03-23T13:27:29;9.20;58.30
26707;DHT22;14319;49.422;10.934;2024-03-23T13:29:30;9.20;59.20
26707;DHT22;14319;49.422;10.934;2024-03-23T13:31:30;9.60;60.50
26707;DHT22;14319;49.422;10.934;2024-03-23T13:33:31;9.50;61.20
26707;DHT22;14319;49.422;10.934;2024-03-23T13:35:34;9.50;60.10